Time;durP1;ratioP1;P1;durP2;ratioP2;P2;SDS_P1;SDS_P2;PMS_P1;PMS_P2;Temp;Humidity;BMP_temperature;BMP_pressure;BME280_temperature;BME280_humidity;BME280_pressure;Samples;Min_cycle;Max_cycle;Signal;HPM_P1;HPM_P2
2021/01/19 00:00:19;;;;;;;14.40;2.15;;;;;;;11.26;100.00;101475.47;5070718;28;20037;-66
2021/01/19 00:02:44;;;;;;;16.88;2.50;;;;;;;11.26;100.00;101476.28;5070831;28;20047;-64
2021/01/19 00:05:10;;;;;;;24.70;3.22;;;;;;;11.26;100.00;101486.41;5070739;28;20032;-65
2021/01/19 00:07:36;;;;;;;27.77;3.40;;;;;;;11.25;100.00;101462.84;5070795;28;20474;-65
2021/01/19 00:10:03;;;;;;;15.40;2.88;;;;;;;11.26;100.00;101464.53;5070810;28;20047;-65
2021/01/19 00:12:28;;;;;;;14.32;3.50;;;;;;;11.25;100.00;101457.38;5070705;28;20398;-65
2021/01/19 00:14:54;;;;;;;26.67;3.97;;;;;;;11.24;100.00;101472.13;5070594;28;20036;-65
2021/01/19 00:17:20;;;;;;;24.00;3.20;;;;;;;11.24;100.00;101466.66;5070702;28;20123;-65
2021/01/19 00:19:46;;;;;;;27.85;3.25;;;;;;;11.24;100.00;101450.25;5070580;28;20467;-64
2021/01/19 00:22:11;;;;;;;20.05;3.25;;;;;;;11.21;100.00;101450.72;5070844;28;20043;-64
2021/01/19 00:24:37;;;;;;;23.33;2.72;;;;;;;11.22;100.00;101463.31;5070606;28;20037;-65
2021/01/19 00:27:03;;;;;;;19.05;3.45;;;;;;;11.23;100.00;101459.53;5070565;28;20028;-65
2021/01/19 00:29:29;;;;;;;13.38;2.47;;;;;;;11.22;100.00;101460.59;5070276;28;20112;-65
2021/01/19 00:31:55;;;;;;;24.52;3.10;;;;;;;11.20;100.00;101462.72;5070478;28;20041;-65
2021/01/19 00:34:21;;;;;;;20.17;3.38;;;;;;;11.18;100.00;101458.31;5070533;28;20509;-64
2021/01/19 00:36:48;;;;;;;24.02;2.78;;;;;;;11.17;100.00;101451.19;5070559;28;20040;-64
2021/01/19 00:39:14;;;;;;;23.90;3.75;;;;;;;11.16;100.00;101451.41;5070378;28;20074;-66
2021/01/19 00:41:40;;;;;;;22.67;2.70;;;;;;;11.14;100.00;101448.91;5070461;28;20042;-65
2021/01/19 00:44:06;;;;;;;22.58;2.45;;;;;;;11.14;100.00;101457.13;5070466;28;20037;-65
2021/01/19 00:46:32;;;;;;;22.42;2.95;;;;;;;11.13;100.00;101430.00;5070380;28;20040;-65
2021/01/19 00:48:58;;;;;;;29.83;3.53;;;;;;;11.13;100.00;101425.38;5070195;28;20051;-64
2021/01/19 00:51:23;;;;;;;19.08;2.55;;;;;;;11.13;100.00;101419.91;5070256;28;20036;-65
2021/01/19 00:53:49;;;;;;;18.63;2.58;;;;;;;11.13;100.00;101428.13;5052372;28;20071;-65
2021/01/19 00:56:15;;;;;;;17.05;2.63;;;;;;;11.12;100.00;101415.50;5073595;28;20123;-64
2021/01/19 00:58:42;;;;;;;19.95;2.67;;;;;;;11.13;100.00;101425.38;5074090;28;20036;-65
2021/01/19 01:01:08;;;;;;;22.00;3.75;;;;;;;11.13;100.00;101411.72;5073947;28;20123;-65
2021/01/19 01:03:34;;;;;;;17.17;2.65;;;;;;;11.13;100.00;101408.16;5073924;28;20123;-65
2021/01/19 01:06:01;;;;;;;24.60;3.95;;;;;;;11.12;100.00;101431.91;5073916;28;20494;-64
2021/01/19 01:08:27;;;;;;;32.75;3.80;;;;;;;11.11;100.00;101413.84;5056226;28;20048;-65
2021/01/19 01:10:52;;;;;;;15.93;2.88;;;;;;;11.10;100.00;101412.16;5073761;28;20033;-64
2021/01/19 01:13:20;;;;;;;19.92;3.00;;;;;;;11.11;100.00;101424.78;5073683;28;20115;-66
2021/01/19 01:15:46;;;;;;;8.73;1.85;;;;;;;11.10;100.00;101409.41;5073833;28;20063;-65
2021/01/19 01:18:14;;;;;;;16.27;2.03;;;;;;;11.09;100.00;101409.66;5073710;28;20079;-64
2021/01/19 01:20:41;;;;;;;13.95;2.38;;;;;;;11.10;100.00;101416.78;5073298;28;20049;-65
2021/01/19 01:23:06;;;;;;;23.52;2.90;;;;;;;11.07;100.00;101418.09;5073665;28;20394;-65
2021/01/19 01:25:32;;;;;;;17.00;2.72;;;;;;;11.06;100.00;101410.94;5055685;28;20033;-65
2021/01/19 01:27:58;;;;;;;14.90;2.45;;;;;;;11.07;100.00;101417.25;5073334;28;20045;-65
2021/01/19 01:30:25;;;;;;;15.10;2.67;;;;;;;11.06;100.00;101419.16;5073271;28;20151;-64
2021/01/19 01:32:51;;;;;;;21.10;2.67;;;;;;;11.05;100.00;101409.28;5073459;28;20040;-66
2021/01/19 01:35:21;;;;;;;23.73;2.88;;;;;;;11.05;100.00;101403.81;5073363;28;20127;-66
2021/01/19 01:37:49;;;;;;;15.00;1.90;;;;;;;11.04;100.00;101407.63;5055375;28;20047;-65
2021/01/19 01:40:20;;;;;;;25.98;3.22;;;;;;;11.05;100.00;101398.34;5073084;28;20035;-65
2021/01/19 01:42:46;;;;;;;20.65;2.35;;;;;;;11.03;100.00;101392.28;5055393;28;20029;-65
2021/01/19 01:45:15;;;;;;;14.88;1.98;;;;;;;11.02;100.00;101385.16;5073176;28;20037;-65
2021/01/19 01:47:41;;;;;;;24.92;2.80;;;;;;;11.04;100.00;101393.94;5073249;28;20078;-66
2021/01/19 01:50:09;;;;;;;25.58;3.47;;;;;;;11.03;100.00;101391.44;5073203;28;20052;-66
2021/01/19 01:52:35;;;;;;;19.98;1.90;;;;;;;11.03;100.00;101389.56;5073109;28;20086;-66
2021/01/19 01:55:01;;;;;;;19.73;2.45;;;;;;;11.02;100.00;101401.56;5073089;28;20131;-64
2021/01/19 01:57:27;;;;;;;14.50;2.05;;;;;;;11.01;100.00;101386.22;5072951;28;20140;-64
2021/01/19 01:59:58;;;;;;;11.70;1.58;;;;;;;11.00;100.00;101395.50;5072884;28;20124;-65
2021/01/19 02:02:24;;;;;;;22.42;2.65;;;;;;;10.99;100.00;101396.56;5072973;28;20060;-65
2021/01/19 02:04:50;;;;;;;13.18;3.28;;;;;;;10.99;100.00;101377.41;5072950;28;20620;-65
2021/01/19 02:07:25;;;;;;;20.55;2.22;;;;;;;11.00;100.00;101391.91;5072786;28;20044;-66
2021/01/19 02:10:26;;;;;;;23.35;2.50;;;;;;;10.98;100.00;101397.63;5072759;28;20437;-64
2021/01/19 02:13:30;;;;;;;24.20;2.70;;;;;;;10.97;100.00;101376.81;5072681;28;20036;-64
2021/01/19 02:16:20;;;;;;;21.08;2.53;;;;;;;10.97;100.00;101398.69;5072663;28;20043;-65
2021/01/19 02:18:56;;;;;;;22.30;3.45;;;;;;;10.96;100.00;101386.09;5072511;28;20035;-65
2021/01/19 02:21:37;;;;;;;19.60;2.80;;;;;;;10.98;100.00;101380.38;5072536;28;20072;-64
2021/01/19 02:24:05;;;;;;;11.77;1.58;;;;;;;10.97;100.00;101385.03;5072469;28;20036;-65
2021/01/19 02:26:43;;;;;;;24.55;2.53;;;;;;;10.99;100.00;101376.59;5072472;28;20039;-64
2021/01/19 02:29:46;;;;;;;28.10;3.38;;;;;;;11.00;100.00;101379.09;5072017;28;20040;-65
2021/01/19 02:32:44;;;;;;;22.38;2.95;;;;;;;11.01;100.00;101378.03;5072299;28;20471;-66
2021/01/19 02:35:21;;;;;;;30.08;3.33;;;;;;;11.04;100.00;101373.97;5072306;28;20040;-64
2021/01/19 02:38:00;;;;;;;23.75;3.10;;;;;;;11.03;100.00;101373.16;5072339;28;20429;-64
2021/01/19 02:40:26;;;;;;;29.65;4.32;;;;;;;11.04;100.00;101369.34;5072078;28;20047;-65
2021/01/19 02:43:09;;;;;;;20.58;2.75;;;;;;;11.04;100.00;101371.25;5072073;28;20047;-65
2021/01/19 02:45:36;;;;;;;21.55;2.92;;;;;;;11.04;100.00;101363.88;5072002;28;20074;-65
2021/01/19 02:48:03;;;;;;;19.42;3.05;;;;;;;11.06;100.00;101372.69;5072009;28;20028;-66
2021/01/19 02:50:29;;;;;;;18.70;2.53;;;;;;;11.06;100.00;101369.94;5071832;28;20513;-64
2021/01/19 02:52:55;;;;;;;23.55;2.72;;;;;;;11.06;100.00;101364.47;5071937;28;20039;-65
2021/01/19 02:55:21;;;;;;;24.95;3.05;;;;;;;11.06;100.00;101364.47;5071880;28;20498;-64
2021/01/19 02:58:07;;;;;;;20.65;2.78;;;;;;;11.05;100.00;101349.16;5071766;28;20056;-65
2021/01/19 03:01:05;;;;;;;28.10;3.03;;;;;;;11.05;100.00;101362.81;5071599;28;20090;-65
2021/01/19 03:03:37;;;;;;;37.45;4.35;;;;;;;11.05;100.00;101360.09;5071689;28;20067;-65
2021/01/19 03:06:30;;;;;;;26.55;3.83;;;;;;;11.05;100.00;101360.09;5071616;28;20414;-65
2021/01/19 03:08:58;;;;;;;28.65;4.18;;;;;;;11.08;100.00;101351.41;5071622;28;20036;-66
2021/01/19 03:11:25;;;;;;;30.90;3.90;;;;;;;11.08;100.00;101348.69;5071588;28;20043;-65
2021/01/19 03:13:51;;;;;;;33.17;4.82;;;;;;;11.09;100.00;101355.81;5071432;28;20032;-63
2021/01/19 03:16:19;;;;;;;26.50;4.35;;;;;;;11.09;100.00;101347.59;5071461;28;20028;-64
2021/01/19 03:18:47;;;;;;;29.63;3.45;;;;;;;11.10;100.00;101362.94;5070827;28;20041;-64
2021/01/19 03:21:14;;;;;;;30.73;3.15;;;;;;;11.10;100.00;101362.94;5071341;28;20111;-65
2021/01/19 03:23:40;;;;;;;31.83;3.72;;;;;;;11.09;100.00;101350.34;5071338;28;20048;-66
2021/01/19 03:26:06;;;;;;;23.95;4.07;;;;;;;11.09;100.00;101353.06;5071357;28;20036;-65
2021/01/19 03:28:33;;;;;;;28.20;3.20;;;;;;;11.08;100.00;101337.75;5071230;28;20119;-65
2021/01/19 03:31:01;;;;;;;28.77;3.72;;;;;;;11.08;100.00;101353.31;5071116;28;20048;-64
2021/01/19 03:33:27;;;;;;;21.95;3.83;;;;;;;11.08;100.00;101337.75;5071158;28;20028;-65
2021/01/19 03:35:53;;;;;;;37.45;5.55;;;;;;;11.07;100.00;101347.00;5071076;28;20036;-64
2021/01/19 03:38:19;;;;;;;28.10;4.20;;;;;;;11.07;100.00;101346.19;5071183;28;20048;-65
2021/01/19 03:40:45;;;;;;;28.83;3.50;;;;;;;11.06;100.00;101334.41;5070984;28;20135;-64
2021/01/19 03:43:11;;;;;;;26.02;3.90;;;;;;;11.07;100.00;101346.19;5071006;28;20136;-64
2021/01/19 03:45:36;;;;;;;30.42;3.17;;;;;;;11.06;100.00;101339.88;5071093;28;20032;-65
2021/01/19 03:48:04;;;;;;;26.95;4.82;;;;;;;11.06;100.00;101333.56;5071057;28;20040;-65
2021/01/19 03:50:30;;;;;;;25.65;4.18;;;;;;;11.06;100.00;101341.78;5070895;28;20046;-65
2021/01/19 03:52:56;;;;;;;31.60;4.40;;;;;;;11.06;100.00;101347.25;5070880;28;20064;-66
2021/01/19 03:55:22;;;;;;;22.63;4.13;;;;;;;11.05;100.00;101338.22;5071043;28;20037;-64
2021/01/19 03:57:47;;;;;;;36.35;4.35;;;;;;;11.06;100.00;101344.50;5070946;28;20086;-64
2021/01/19 04:00:15;;;;;;;34.00;3.67;;;;;;;11.05;100.00;101338.22;5071194;28;20040;-66
2021/01/19 04:02:41;;;;;;;34.08;4.07;;;;;;;11.06;100.00;101348.06;5070902;28;20036;-65
2021/01/19 04:05:08;;;;;;;26.27;3.88;;;;;;;11.07;100.00;101340.72;5070871;28;20043;-64
2021/01/19 04:07:39;;;;;;;24.48;3.25;;;;;;;11.07;100.00;101338.81;5070763;28;20071;-65
2021/01/19 04:10:07;;;;;;;21.58;2.38;;;;;;;11.07;100.00;101336.06;5070752;28;20126;-65
2021/01/19 04:12:32;;;;;;;19.52;3.00;;;;;;;11.08;100.00;101332.28;5070771;28;20120;-64
2021/01/19 04:14:58;;;;;;;25.95;2.95;;;;;;;11.08;100.00;101326.81;5070774;28;20139;-65
2021/01/19 04:17:24;;;;;;;20.50;3.05;;;;;;;11.08;100.00;101315.88;5070821;28;20041;-64
2021/01/19 04:19:50;;;;;;;27.65;4.53;;;;;;;11.08;100.00;101337.75;5070619;28;20040;-64
2021/01/19 04:22:15;;;;;;;33.40;4.20;;;;;;;11.08;100.00;101304.94;5070570;28;20037;-64
2021/01/19 04:24:41;;;;;;;23.77;4.45;;;;;;;11.07;100.00;101336.06;5070625;28;20036;-64
2021/01/19 04:27:07;;;;;;;27.85;4.22;;;;;;;11.06;100.00;101323.47;5070333;28;20111;-65
2021/01/19 04:29:32;;;;;;;32.20;4.50;;;;;;;11.05;100.00;101321.81;5071061;28;20091;-65
2021/01/19 04:31:58;;;;;;;23.00;3.78;;;;;;;11.06;100.00;101323.47;5074604;28;20047;-64
2021/01/19 04:34:23;;;;;;;22.77;3.67;;;;;;;11.07;100.00;101319.66;5074691;28;20037;-64
2021/01/19 04:36:49;;;;;;;28.08;3.67;;;;;;;11.06;100.00;101328.94;5074664;28;20094;-64
2021/01/19 04:39:15;;;;;;;33.58;4.93;;;;;;;11.06;100.00;101323.47;5074405;28;20043;-65
2021/01/19 04:41:44;;;;;;;38.30;5.47;;;;;;;11.06;100.00;101301.59;5074268;28;20036;-66
2021/01/19 04:44:10;;;;;;;37.85;5.15;;;;;;;11.05;100.00;101310.88;5074521;28;20043;-64
2021/01/19 04:46:36;;;;;;;42.20;5.88;;;;;;;11.05;100.00;101316.34;5074444;28;20044;-64
2021/01/19 04:49:04;;;;;;;39.05;5.38;;;;;;;11.06;100.00;101318.00;5074071;28;20036;-64
2021/01/19 04:51:38;;;;;;;39.17;5.70;;;;;;;11.06;100.00;101318.00;5074266;28;20036;-64
2021/01/19 04:54:04;;;;;;;30.30;4.97;;;;;;;11.06;100.00;101312.53;5074182;28;20056;-66
2021/01/19 04:56:30;;;;;;;33.20;4.97;;;;;;;11.07;100.00;101310.63;5074062;28;20135;-64
2021/01/19 04:58:58;;;;;;;46.30;5.72;;;;;;;11.07;100.00;101313.38;5074016;28;20497;-64
2021/01/19 05:01:35;;;;;;;25.65;4.03;;;;;;;11.07;100.00;101314.22;5074047;28;20037;-64
2021/01/19 05:04:32;;;;;;;27.23;4.20;;;;;;;11.07;100.00;101308.75;5073974;28;20158;-65
2021/01/19 05:07:32;;;;;;;19.50;2.40;;;;;;;11.09;100.00;101312.06;5073965;28;20028;-66
2021/01/19 05:10:13;;;;;;;19.63;3.42;;;;;;;11.08;100.00;101307.66;5073928;28;20123;-66
2021/01/19 05:12:44;;;;;;;28.23;3.10;;;;;;;11.08;100.00;101310.41;5073788;28;20032;-65
2021/01/19 05:15:14;;;;;;;22.40;3.58;;;;;;;11.07;100.00;101314.22;5073700;28;20032;-64
2021/01/19 05:17:41;;;;;;;24.00;3.65;;;;;;;11.05;100.00;101316.34;5073836;28;20032;-64
2021/01/19 05:20:09;;;;;;;27.17;4.63;;;;;;;11.06;100.00;101312.53;5073754;28;20120;-63
2021/01/19 05:22:35;;;;;;;26.95;3.00;;;;;;;11.06;100.00;101312.53;5073663;28;20037;-65
2021/01/19 05:25:02;;;;;;;23.20;2.53;;;;;;;11.06;100.00;101318.00;5073783;28;20032;-66
2021/01/19 05:27:27;;;;;;;24.17;3.80;;;;;;;11.05;100.00;101308.16;5073503;28;20044;-65
2021/01/19 05:30:07;;;;;;;30.45;3.58;;;;;;;11.05;100.00;101318.25;5073326;28;20054;-65
2021/01/19 05:32:39;;;;;;;32.72;3.00;;;;;;;11.04;100.00;101314.69;5073429;28;20469;-64
2021/01/19 05:35:20;;;;;;;18.67;3.78;;;;;;;11.04;100.00;101303.75;5073602;28;20029;-65
2021/01/19 05:38:04;;;;;;;22.38;3.88;;;;;;;11.02;100.00;101300.41;5073432;28;20024;-65
2021/01/19 05:40:30;;;;;;;18.38;1.92;;;;;;;11.01;100.00;101304.22;5072908;28;20082;-65
2021/01/19 05:42:55;;;;;;;14.27;2.42;;;;;;;11.01;100.00;101298.75;5073288;28;20072;-65
2021/01/19 05:45:21;;;;;;;20.38;2.92;;;;;;;11.01;100.00;101309.69;5073290;28;20036;-65
2021/01/19 05:47:47;;;;;;;16.00;2.03;;;;;;;11.00;100.00;101280.69;5073210;28;20486;-64
2021/01/19 05:50:14;;;;;;;14.20;2.10;;;;;;;10.99;100.00;101297.31;5072971;28;20032;-64
2021/01/19 05:52:41;;;;;;;17.27;1.98;;;;;;;10.97;100.00;101297.56;5073054;28;20051;-66
2021/01/19 05:55:07;;;;;;;14.38;1.80;;;;;;;10.95;100.00;101296.97;5073288;28;20044;-65
2021/01/19 05:57:33;;;;;;;7.03;1.10;;;;;;;10.97;100.00;101294.81;5073154;28;20075;-66
2021/01/19 06:00:04;;;;;;;10.55;1.42;;;;;;;10.97;100.00;101299.47;5072862;28;20151;-65
2021/01/19 06:02:43;;;;;;;11.65;1.38;;;;;;;10.94;100.00;101300.75;5072937;28;20036;-64
2021/01/19 06:05:16;;;;;;;9.50;1.63;;;;;;;10.94;100.00;101281.63;5072927;28;20371;-64
2021/01/19 06:07:46;;;;;;;10.63;1.13;;;;;;;10.93;100.00;101307.28;5073049;28;20041;-65
2021/01/19 06:10:20;;;;;;;6.05;0.73;;;;;;;10.93;100.00;101290.88;5073040;28;20419;-65
2021/01/19 06:12:46;;;;;;;9.98;0.80;;;;;;;10.92;100.00;101283.75;5072916;28;20032;-64
2021/01/19 06:15:12;;;;;;;6.97;1.17;;;;;;;10.92;100.00;101283.75;5072669;28;20109;-64
2021/01/19 06:17:38;;;;;;;6.00;1.00;;;;;;;10.91;100.00;101276.59;5072515;28;20037;-65
2021/01/19 06:20:06;;;;;;;9.65;1.42;;;;;;;10.90;100.00;101285.03;5072529;28;20029;-65
2021/01/19 06:22:32;;;;;;;13.15;1.95;;;;;;;10.89;100.00;101278.75;5072698;28;20032;-65
2021/01/19 06:24:59;;;;;;;14.50;2.05;;;;;;;10.86;100.00;101284.69;5072663;28;20110;-65
2021/01/19 06:27:25;;;;;;;12.98;2.30;;;;;;;10.83;100.00;101274.22;5072611;28;20039;-65
2021/01/19 06:29:57;;;;;;;18.63;2.47;;;;;;;10.83;100.00;101276.97;5072451;28;20048;-65
2021/01/19 06:32:24;;;;;;;20.35;3.53;;;;;;;10.81;100.00;101265.44;5072580;28;20454;-66
2021/01/19 06:34:49;;;;;;;16.52;2.55;;;;;;;10.79;100.00;101265.66;5054804;28;20417;-64
2021/01/19 06:37:30;;;;;;;17.73;2.70;;;;;;;10.78;100.00;101271.38;5072580;28;20040;-65
2021/01/19 06:40:00;;;;;;;20.00;2.53;;;;;;;10.78;100.00;101261.28;5072509;28;20494;-65
2021/01/19 06:42:28;;;;;;;10.50;1.88;;;;;;;10.76;100.00;101257.94;5054644;28;20490;-66
2021/01/19 06:44:59;;;;;;;21.88;2.78;;;;;;;10.74;100.00;101262.78;5072481;28;20066;-65
2021/01/19 06:47:26;;;;;;;16.75;3.30;;;;;;;10.73;100.00;101257.56;5072276;28;20581;-65
2021/01/19 06:49:53;;;;;;;17.35;2.20;;;;;;;10.71;100.00;101265.97;5072066;28;20383;-65
2021/01/19 06:52:20;;;;;;;18.80;2.75;;;;;;;10.72;100.00;101261.34;5071239;28;20123;-65
2021/01/19 06:54:55;;;;;;;25.40;3.42;;;;;;;10.70;100.00;101266.22;5072006;28;20685;-66
2021/01/19 06:57:45;;;;;;;15.68;1.80;;;;;;;10.65;100.00;101256.00;5071981;28;20064;-64
2021/01/19 07:00:18;;;;;;;15.18;2.92;;;;;;;10.63;100.00;101244.47;5071627;28;20120;-65
2021/01/19 07:02:46;;;;;;;23.08;2.55;;;;;;;10.64;100.00;101256.22;5072343;28;20032;-65
2021/01/19 07:05:14;;;;;;;18.33;2.67;;;;;;;10.62;100.00;101251.00;5071647;28;20040;-66
2021/01/19 07:07:48;;;;;;;21.63;3.03;;;;;;;10.61;100.00;101243.03;5071597;28;20085;-65
2021/01/19 07:10:34;;;;;;;29.13;3.22;;;;;;;10.58;100.00;101245.16;5071612;28;20047;-65
2021/01/19 07:13:02;;;;;;;20.08;2.80;;;;;;;10.56;100.00;101219.97;5071745;28;20056;-64
2021/01/19 07:15:46;;;;;;;17.10;1.80;;;;;;;10.55;100.00;101229.22;5071524;28;20171;-65
2021/01/19 07:18:31;;;;;;;17.35;2.50;;;;;;;10.53;100.00;101225.91;5071520;28;20170;-65
2021/01/19 07:21:03;;;;;;;19.63;2.92;;;;;;;10.50;100.00;101204.53;5071376;28;20043;-65
2021/01/19 07:23:44;;;;;;;10.23;1.90;;;;;;;10.48;100.00;101228.50;5071238;28;20539;-64
2021/01/19 07:26:21;;;;;;;15.70;2.15;;;;;;;10.45;100.00;101228.97;5071340;28;20043;-65
2021/01/19 07:28:49;;;;;;;22.08;2.58;;;;;;;10.42;100.00;101240.38;5071382;28;20098;-65
2021/01/19 07:31:17;;;;;;;23.83;3.15;;;;;;;10.37;100.00;101237.47;5071154;28;20048;-64
2021/01/19 07:33:47;;;;;;;30.45;3.67;;;;;;;10.33;100.00;101236.28;5071274;28;20063;-65
2021/01/19 07:36:27;;;;;;;29.73;3.88;;;;;;;10.31;100.00;101237.56;5071209;28;20064;-66
2021/01/19 07:38:53;;;;;;;25.60;3.70;;;;;;;10.23;100.00;101214.97;5071028;28;20028;-65
2021/01/19 07:41:26;;;;;;;28.92;4.40;;;;;;;10.24;100.00;101224.84;5070981;28;20123;-64
2021/01/19 07:43:52;;;;;;;35.30;5.28;;;;;;;10.24;100.00;101216.66;5071165;28;20063;-63
2021/01/19 07:46:28;;;;;;;28.85;4.15;;;;;;;10.25;100.00;101228.41;5071243;28;20078;-65
2021/01/19 07:49:00;;;;;;;38.38;4.70;;;;;;;10.25;100.00;101228.41;5071045;28;20040;-66
2021/01/19 07:51:37;;;;;;;32.65;4.03;;;;;;;10.22;100.00;101218.78;5071065;28;20025;-64
2021/01/19 07:54:02;;;;;;;24.27;3.67;;;;;;;10.20;100.00;101220.03;5071132;28;20117;-65
2021/01/19 07:56:29;;;;;;;31.50;4.07;;;;;;;10.20;100.00;101203.66;5070820;28;20056;-65
2021/01/19 07:58:57;;;;;;;21.58;4.18;;;;;;;10.22;100.00;101212.47;5070797;28;20115;-66
2021/01/19 08:01:56;;;;;;;26.38;3.83;;;;;;;10.21;100.00;101202.63;5070863;28;20042;-66
2021/01/19 08:04:31;;;;;;;26.45;2.78;;;;;;;10.21;100.00;101188.97;5065335;28;20040;-66
2021/01/19 08:06:57;;;;;;;27.67;3.83;;;;;;;10.18;100.00;101168.41;5070742;28;20071;-64
2021/01/19 08:09:23;;;;;;;28.45;3.40;;;;;;;10.20;100.00;101192.75;5070487;28;20029;-64
2021/01/19 08:12:07;;;;;;;33.08;3.42;;;;;;;10.23;100.00;101192.31;5052883;28;20509;-66
2021/01/19 08:14:34;;;;;;;31.70;4.13;;;;;;;10.24;100.00;101196.72;5070641;28;20479;-65
2021/01/19 08:17:03;;;;;;;36.95;4.65;;;;;;;10.27;100.00;101199.00;5070723;28;20044;-64
2021/01/19 08:19:35;;;;;;;25.70;2.70;;;;;;;10.27;100.00;101205.28;5070685;28;20047;-65
2021/01/19 08:22:01;;;;;;;21.92;4.35;;;;;;;10.26;100.00;101203.63;5070667;28;20089;-63
2021/01/19 08:24:27;;;;;;;33.80;4.13;;;;;;;10.29;100.00;101191.41;5070665;28;20039;-65
2021/01/19 08:26:55;;;;;;;21.35;2.90;;;;;;;10.30;100.00;101198.53;5070430;28;20037;-64
2021/01/19 08:29:22;;;;;;;26.77;3.13;;;;;;;10.32;100.00;101184.63;5070247;28;20040;-65
2021/01/19 08:31:58;;;;;;;27.60;4.18;;;;;;;10.33;100.00;101189.03;5070799;28;20035;-65
2021/01/19 08:34:26;;;;;;;26.63;3.92;;;;;;;10.34;100.00;101187.97;5070708;28;20041;-65
2021/01/19 08:36:52;;;;;;;28.58;3.97;;;;;;;10.36;100.00;101192.13;5070554;28;20189;-64
2021/01/19 08:39:19;;;;;;;29.27;3.72;;;;;;;10.36;100.00;101170.28;5070462;28;20036;-65
2021/01/19 08:41:50;;;;;;;26.40;4.28;;;;;;;10.39;100.00;101175.28;5070370;28;20403;-64
2021/01/19 08:44:17;;;;;;;20.00;3.20;;;;;;;10.41;100.00;101173.16;5070397;28;20048;-66
2021/01/19 08:46:44;;;;;;;28.38;3.85;;;;;;;10.42;100.00;101166.63;5070432;28;20037;-64
2021/01/19 08:49:12;;;;;;;16.17;2.58;;;;;;;10.45;100.00;101157.97;5072395;28;20517;-64
2021/01/19 08:51:48;;;;;;;22.60;3.40;;;;;;;10.47;100.00;101149.53;5089683;28;20036;-64
2021/01/19 08:54:14;;;;;;;20.38;2.83;;;;;;;10.45;100.00;101151.69;5076617;28;20106;-65
2021/01/19 08:56:41;;;;;;;24.33;3.00;;;;;;;10.47;100.00;101153.09;5070859;28;20047;-63
2021/01/19 08:59:11;;;;;;;19.38;3.22;;;;;;;10.46;100.00;101145.97;5054223;28;20055;-66
2021/01/19 09:01:55;;;;;;;30.05;2.83;;;;;;;10.50;100.00;101143.59;5069824;28;20399;-66
2021/01/19 09:04:27;;;;;;;23.73;3.35;;;;;;;10.51;100.00;101142.53;5059083;28;20044;-67
2021/01/19 09:07:03;;;;;;;27.05;4.20;;;;;;;10.51;100.00;101129.72;5075881;28;20115;-64
2021/01/19 09:09:28;;;;;;;21.48;3.05;;;;;;;10.51;100.00;101132.44;5078477;28;20047;-66
2021/01/19 09:11:54;;;;;;;26.15;3.50;;;;;;;10.51;100.00;101124.25;5072250;28;20037;-66
2021/01/19 09:14:24;;;;;;;12.57;1.90;;;;;;;10.51;100.00;101118.78;5083720;28;20105;-64
2021/01/19 09:16:51;;;;;;;14.73;1.90;;;;;;;10.51;100.00;101129.72;5083508;28;20040;-67
2021/01/19 09:19:17;;;;;;;21.20;3.40;;;;;;;10.47;100.00;101128.53;5074690;28;20044;-66
2021/01/19 09:21:43;;;;;;;15.57;2.78;;;;;;;10.45;100.00;101116.19;5075988;28;20086;-65
2021/01/19 09:24:16;;;;;;;17.40;2.88;;;;;;;10.42;100.00;101109.28;5081083;28;20242;-66
2021/01/19 09:26:56;;;;;;;19.55;1.88;;;;;;;10.41;100.00;101120.41;5068339;28;20060;-65
2021/01/19 09:29:29;;;;;;;16.23;1.77;;;;;;;10.39;100.00;101120.66;5079263;28;20049;-65
2021/01/19 09:32:03;;;;;;;15.60;1.92;;;;;;;10.41;100.00;101115.81;5073136;28;20024;-68
2021/01/19 09:34:48;;;;;;;19.95;2.83;;;;;;;10.41;100.00;101110.38;5080989;28;20054;-68
2021/01/19 09:37:15;;;;;;;27.35;3.13;;;;;;;10.45;100.00;101102.53;5073300;28;20040;-68
2021/01/19 09:39:42;;;;;;;25.13;2.67;;;;;;;10.47;100.00;101101.22;5075134;28;20565;-66
2021/01/19 09:42:08;;;;;;;25.70;3.92;;;;;;;10.48;100.00;101086.50;5073036;28;20041;-67
2021/01/19 09:44:37;;;;;;;35.20;4.30;;;;;;;10.50;100.00;101089.81;5088290;28;20495;-68
2021/01/19 09:47:07;;;;;;;24.73;3.58;;;;;;;10.50;100.00;101084.34;5091763;28;20032;-69
2021/01/19 09:49:35;;;;;;;29.92;3.45;;;;;;;10.51;100.00;101086.03;5072809;28;20093;-67
2021/01/19 09:52:12;;;;;;;37.50;3.10;;;;;;;10.52;100.00;101087.69;5073387;28;20118;-65
2021/01/19 09:54:38;;;;;;;17.55;3.05;;;;;;;10.55;100.00;101069.97;5077524;28;20040;-66
2021/01/19 09:57:04;;;;;;;21.95;2.60;;;;;;;10.54;100.00;101074.63;5072809;28;20033;-66
2021/01/19 09:59:31;;;;;;;25.15;3.80;;;;;;;10.53;100.00;101077.59;5072939;28;20040;-66
2021/01/19 10:01:58;;;;;;;23.90;4.05;;;;;;;10.51;100.00;101079.72;5072742;28;20036;-65
2021/01/19 10:04:25;;;;;;;27.10;3.83;;;;;;;10.47;100.00;101084.00;5072957;28;20123;-66
2021/01/19 10:07:04;;;;;;;24.65;3.72;;;;;;;10.47;100.00;101079.38;5072788;28;20036;-67
2021/01/19 10:09:29;;;;;;;19.88;3.60;;;;;;;10.48;100.00;101064.66;5072783;28;20118;-65
2021/01/19 10:12:01;;;;;;;25.77;3.83;;;;;;;10.49;100.00;101055.38;5072731;28;20040;-65
2021/01/19 10:14:37;;;;;;;24.80;3.83;;;;;;;10.52;100.00;101060.38;5072745;28;20040;-66
2021/01/19 10:17:04;;;;;;;30.10;5.10;;;;;;;10.56;100.00;101061.56;5054679;28;20036;-66
2021/01/19 10:19:32;;;;;;;20.60;3.33;;;;;;;10.62;100.00;101058.97;5072175;28;20546;-66
2021/01/19 10:22:02;;;;;;;17.85;3.35;;;;;;;10.66;100.00;101047.31;5072072;28;20048;-65
2021/01/19 10:24:28;;;;;;;26.15;3.42;;;;;;;10.73;100.00;101044.44;5072310;28;20115;-66
2021/01/19 10:27:06;;;;;;;30.55;3.00;;;;;;;10.75;100.00;101053.25;5071255;28;20134;-65
2021/01/19 10:29:36;;;;;;;33.97;3.33;;;;;;;10.78;100.00;101050.88;5072202;28;20048;-65
2021/01/19 10:32:08;;;;;;;23.90;3.05;;;;;;;10.82;100.00;101038.41;5071933;28;20032;-65
2021/01/19 10:34:34;;;;;;;21.45;3.00;;;;;;;10.86;100.00;101038.75;5072231;28;20051;-65
2021/01/19 10:37:01;;;;;;;27.52;4.70;;;;;;;10.90;100.00;101029.00;5072281;28;20110;-65
2021/01/19 10:39:30;;;;;;;28.90;4.63;;;;;;;10.93;100.00;101027.69;5071291;28;20039;-65
2021/01/19 10:41:57;;;;;;;27.05;3.95;;;;;;;10.95;100.00;101031.88;5055401;28;20033;-64
2021/01/19 10:44:24;;;;;;;27.40;4.03;;;;;;;11.00;100.00;101023.75;5078911;28;20036;-66
2021/01/19 10:47:00;;;;;;;23.85;3.83;;;;;;;11.02;100.00;101027.09;5072133;28;20046;-66
2021/01/19 10:49:31;;;;;;;25.10;3.80;;;;;;;11.02;100.00;101031.72;5072127;28;20044;-66
2021/01/19 10:51:57;;;;;;;30.85;4.38;;;;;;;11.04;100.00;101013.16;5072027;28;20060;-67
2021/01/19 10:54:24;;;;;;;22.15;3.95;;;;;;;11.01;100.00;101014.50;5071941;28;20120;-66
2021/01/19 10:57:18;;;;;;;30.88;5.70;;;;;;;11.01;100.00;101002.72;5071917;28;20044;-66
2021/01/19 10:59:46;;;;;;;34.70;4.95;;;;;;;11.01;100.00;101009.03;4989790;28;20057;-66
2021/01/19 11:02:12;;;;;;;31.67;4.32;;;;;;;11.02;100.00;100998.91;4990245;28;20062;-66
2021/01/19 11:04:38;;;;;;;32.10;4.57;;;;;;;11.01;100.00;101000.81;5056446;28;20072;-66
2021/01/19 11:07:03;;;;;;;24.60;4.40;;;;;;;11.02;100.00;100991.56;5071564;28;20040;-66
2021/01/19 11:09:29;;;;;;;36.08;5.50;;;;;;;11.03;100.00;100990.47;5071658;28;20040;-66
2021/01/19 11:11:54;;;;;;;23.92;3.72;;;;;;;11.06;100.00;100978.22;5071551;28;20052;-66
2021/01/19 11:14:20;;;;;;;36.45;4.80;;;;;;;11.08;100.00;100976.91;5071626;28;20403;-66
2021/01/19 11:16:46;;;;;;;33.45;5.30;;;;;;;11.10;100.00;100958.34;5053594;28;20040;-66
2021/01/19 11:19:14;;;;;;;27.90;4.40;;;;;;;11.10;100.00;100966.56;5071474;28;20041;-66
2021/01/19 11:21:41;;;;;;;34.33;5.45;;;;;;;11.14;100.00;100958.72;5071369;28;20086;-66